This is the latest recevied weather packets stored in our database for station/object KC1HBM. If no packets are shown the sender has not sent any weather packets the latest 10 day(s).
| Time | Temp. | Humidity | Pressure | Rain* | Wind** | Luminosity | Snow |
|---|---|---|---|---|---|---|---|
| 1778000495 | 17.22° C | 71% | 1005.1 hPa | 0 mm | - | 628 W/m² | - |
| 1778000190 | 18.33° C | 68% | 1005.1 hPa | 0 mm | - | 645 W/m² | - |
| 1777999886 | 17.78° C | 69% | 1005.2 hPa | 0 mm | - | 658 W/m² | - |
| 1777999581 | 18.89° C | 67% | 1004.9 hPa | 0 mm | - | 651 W/m² | - |
| 1777999279 | 18.33° C | 68% | 1004.9 hPa | 0 mm | - | 657 W/m² | - |
| 1777998978 | 17.78° C | 70% | 1005 hPa | 0 mm | - | 651 W/m² | - |
| 1777998675 | 17.22° C | 70% | 1005.3 hPa | 0 mm | - | 604 W/m² | - |
| 1777998372 | 17.22° C | 71% | 1005.3 hPa | 0 mm | - | 630 W/m² | - |
| 1777998070 | 17.78° C | 71% | 1005.4 hPa | 0 mm | - | 634 W/m² | - |
| 1777997767 | 17.22° C | 72% | 1005.4 hPa | 0 mm | - | 399 W/m² | - |
| 1777997464 | 17.22° C | 71% | 1005.6 hPa | 0 mm | - | 524 W/m² | - |
| 1777997162 | 17.22° C | 70% | 1005.7 hPa | 0 mm | - | 609 W/m² | - |
| 1777996859 | 17.22° C | 72% | 1005.7 hPa | 0 mm | - | 636 W/m² | - |
| 1777996555 | 17.22° C | 71% | 1005.8 hPa | 0 mm | - | 636 W/m² | - |
| 1777996251 | 17.22° C | 71% | 1006 hPa | 0 mm | - | 649 W/m² | - |
| 1777995947 | 17.22° C | 69% | 1005.8 hPa | 0 mm | - | 648 W/m² | - |
| 1777995643 | 17.78° C | 71% | 1005.9 hPa | 0 mm | - | 635 W/m² | - |
| 1777995341 | 17.78° C | 69% | 1006.1 hPa | 0 mm | - | 622 W/m² | - |
| 1777995038 | 18.33° C | 69% | 1006 hPa | 0 mm | - | 665 W/m² | - |
| 1777994735 | 18.33° C | 70% | 1006.1 hPa | 0 mm | - | 662 W/m² | - |
| 1777994431 | 18.89° C | 68% | 1006.3 hPa | 0 mm | - | 623 W/m² | - |
| 1777994125 | 18.33° C | 69% | 1006 hPa | 0 mm | - | 649 W/m² | - |
| 1777993823 | 17.78° C | 69% | 1006.2 hPa | 0 mm | - | 650 W/m² | - |
| 1777993519 | 17.22° C | 72% | 1006.1 hPa | 0 mm | - | 655 W/m² | - |
| 1777993215 | 16.67° C | 73% | 1006.4 hPa | 0 mm | - | 633 W/m² | - |
* Rain latest hour (hover to see other rain measurements)
** Current wind speed in m/s (hover to see current wind gust speed)